sensor_id;sensor_type;location;lat;lon;timestamp;pressure;altitude;pressure_sealevel;temperature
41940;BMP180;23057;48.554;14.454;2023-03-03T00:00:32;93689.00;;;7.30
41940;BMP180;23057;48.554;14.454;2023-03-03T00:03:05;93689.00;;;7.30
41940;BMP180;23057;48.554;14.454;2023-03-03T00:05:38;93684.00;;;7.20
41940;BMP180;23057;48.554;14.454;2023-03-03T00:08:09;93680.00;;;7.20
41940;BMP180;23057;48.554;14.454;2023-03-03T00:10:40;93676.00;;;7.20
41940;BMP180;23057;48.554;14.454;2023-03-03T00:13:17;93683.00;;;7.20
41940;BMP180;23057;48.554;14.454;2023-03-03T00:15:50;93678.00;;;7.20
41940;BMP180;23057;48.554;14.454;2023-03-03T00:18:32;93675.00;;;7.10
41940;BMP180;23057;48.554;14.454;2023-03-03T00:21:28;93681.00;;;7.10
41940;BMP180;23057;48.554;14.454;2023-03-03T00:24:23;93688.00;;;7.10
41940;BMP180;23057;48.554;14.454;2023-03-03T00:26:56;93694.00;;;7.00
41940;BMP180;23057;48.554;14.454;2023-03-03T00:29:36;93686.00;;;7.00
41940;BMP180;23057;48.554;14.454;2023-03-03T00:35:33;93688.00;;;7.00
41940;BMP180;23057;48.554;14.454;2023-03-03T00:38:13;93687.00;;;7.00
41940;BMP180;23057;48.554;14.454;2023-03-03T00:40:47;93692.00;;;7.00
41940;BMP180;23057;48.554;14.454;2023-03-03T00:43:27;93691.00;;;7.00
41940;BMP180;23057;48.554;14.454;2023-03-03T00:46:07;93696.00;;;7.00
41940;BMP180;23057;48.554;14.454;2023-03-03T00:48:42;93700.00;;;7.00
41940;BMP180;23057;48.554;14.454;2023-03-03T00:51:29;93703.00;;;7.00
41940;BMP180;23057;48.554;14.454;2023-03-03T00:54:05;93698.00;;;7.00
41940;BMP180;23057;48.554;14.454;2023-03-03T00:56:35;93696.00;;;7.00
41940;BMP180;23057;48.554;14.454;2023-03-03T00:59:08;93692.00;;;7.00
41940;BMP180;23057;48.554;14.454;2023-03-03T01:01:38;93695.00;;;6.90
41940;BMP180;23057;48.554;14.454;2023-03-03T01:04:09;93689.00;;;6.90
41940;BMP180;23057;48.554;14.454;2023-03-03T01:06:40;93695.00;;;6.90
41940;BMP180;23057;48.554;14.454;2023-03-03T01:09:11;93694.00;;;7.00
41940;BMP180;23057;48.554;14.454;2023-03-03T01:11:41;93688.00;;;7.00
41940;BMP180;23057;48.554;14.454;2023-03-03T01:14:12;93683.00;;;7.10
41940;BMP180;23057;48.554;14.454;2023-03-03T01:16:43;93689.00;;;7.10
41940;BMP180;23057;48.554;14.454;2023-03-03T01:19:14;93681.00;;;7.10
41940;BMP180;23057;48.554;14.454;2023-03-03T01:21:45;93687.00;;;7.20
41940;BMP180;23057;48.554;14.454;2023-03-03T01:24:16;93687.00;;;7.20
41940;BMP180;23057;48.554;14.454;2023-03-03T01:26:47;93680.00;;;7.20
41940;BMP180;23057;48.554;14.454;2023-03-03T01:29:18;93684.00;;;7.30
41940;BMP180;23057;48.554;14.454;2023-03-03T01:31:48;93680.00;;;7.30
41940;BMP180;23057;48.554;14.454;2023-03-03T01:34:19;93681.00;;;7.30
41940;BMP180;23057;48.554;14.454;2023-03-03T01:36:51;93680.00;;;7.40
41940;BMP180;23057;48.554;14.454;2023-03-03T01:39:21;93681.00;;;7.40
41940;BMP180;23057;48.554;14.454;2023-03-03T01:41:52;93675.00;;;7.40
41940;BMP180;23057;48.554;14.454;2023-03-03T01:44:23;93678.00;;;7.40
41940;BMP180;23057;48.554;14.454;2023-03-03T01:47:05;93673.00;;;7.40
41940;BMP180;23057;48.554;14.454;2023-03-03T01:52:37;93671.00;;;7.40
41940;BMP180;23057;48.554;14.454;2023-03-03T01:55:15;93674.00;;;7.40
41940;BMP180;23057;48.554;14.454;2023-03-03T01:57:57;93674.00;;;7.40
41940;BMP180;23057;48.554;14.454;2023-03-03T02:00:33;93681.00;;;7.40
41940;BMP180;23057;48.554;14.454;2023-03-03T02:03:07;93683.00;;;7.40
41940;BMP180;23057;48.554;14.454;2023-03-03T02:05:40;93670.00;;;7.40
41940;BMP180;23057;48.554;14.454;2023-03-03T02:08:14;93681.00;;;7.40
41940;BMP180;23057;48.554;14.454;2023-03-03T02:10:51;93681.00;;;7.40
41940;BMP180;23057;48.554;14.454;2023-03-03T02:13:24;93674.00;;;7.40
41940;BMP180;23057;48.554;14.454;2023-03-03T02:15:54;93671.00;;;7.40
41940;BMP180;23057;48.554;14.454;2023-03-03T02:18:26;93660.00;;;7.40
41940;BMP180;23057;48.554;14.454;2023-03-03T02:21:13;93669.00;;;7.40
41940;BMP180;23057;48.554;14.454;2023-03-03T02:26:47;93669.00;;;7.40
41940;BMP180;23057;48.554;14.454;2023-03-03T02:29:18;93666.00;;;7.40
41940;BMP180;23057;48.554;14.454;2023-03-03T02:31:49;93666.00;;;7.50
41940;BMP180;23057;48.554;14.454;2023-03-03T02:34:20;93672.00;;;7.50
41940;BMP180;23057;48.554;14.454;2023-03-03T02:36:51;93671.00;;;7.50
41940;BMP180;23057;48.554;14.454;2023-03-03T02:39:24;93669.00;;;7.50
41940;BMP180;23057;48.554;14.454;2023-03-03T02:44:51;93671.00;;;7.50
41940;BMP180;23057;48.554;14.454;2023-03-03T02:47:21;93672.00;;;7.50
41940;BMP180;23057;48.554;14.454;2023-03-03T02:49:52;93677.00;;;7.50
41940;BMP180;23057;48.554;14.454;2023-03-03T02:52:23;93677.00;;;7.50
41940;BMP180;23057;48.554;14.454;2023-03-03T02:54:53;93673.00;;;7.50
41940;BMP180;23057;48.554;14.454;2023-03-03T02:57:24;93678.00;;;7.50
41940;BMP180;23057;48.554;14.454;2023-03-03T02:59:55;93677.00;;;7.50
41940;BMP180;23057;48.554;14.454;2023-03-03T03:02:26;93676.00;;;7.50
41940;BMP180;23057;48.554;14.454;2023-03-03T03:04:56;93677.00;;;7.50
41940;BMP180;23057;48.554;14.454;2023-03-03T03:07:27;93676.00;;;7.50
41940;BMP180;23057;48.554;14.454;2023-03-03T03:09:58;93669.00;;;7.50
41940;BMP180;23057;48.554;14.454;2023-03-03T03:12:29;93663.00;;;7.50
41940;BMP180;23057;48.554;14.454;2023-03-03T03:14:59;93666.00;;;7.60
41940;BMP180;23057;48.554;14.454;2023-03-03T03:17:30;93667.00;;;7.50
41940;BMP180;23057;48.554;14.454;2023-03-03T03:20:01;93654.00;;;7.60
41940;BMP180;23057;48.554;14.454;2023-03-03T03:22:32;93660.00;;;7.60
41940;BMP180;23057;48.554;14.454;2023-03-03T03:25:03;93657.00;;;7.60
41940;BMP180;23057;48.554;14.454;2023-03-03T03:27:34;93657.00;;;7.50
41940;BMP180;23057;48.554;14.454;2023-03-03T03:30:06;93663.00;;;7.50
41940;BMP180;23057;48.554;14.454;2023-03-03T03:32:37;93654.00;;;7.50
41940;BMP180;23057;48.554;14.454;2023-03-03T03:35:08;93666.00;;;7.40
41940;BMP180;23057;48.554;14.454;2023-03-03T03:37:39;93670.00;;;7.40
41940;BMP180;23057;48.554;14.454;2023-03-03T03:40:10;93671.00;;;7.40
41940;BMP180;23057;48.554;14.454;2023-03-03T03:42:41;93681.00;;;7.40
41940;BMP180;23057;48.554;14.454;2023-03-03T03:45:12;93672.00;;;7.40
41940;BMP180;23057;48.554;14.454;2023-03-03T03:47:46;93668.00;;;7.30
41940;BMP180;23057;48.554;14.454;2023-03-03T03:50:17;93672.00;;;7.30
41940;BMP180;23057;48.554;14.454;2023-03-03T03:52:48;93669.00;;;7.30
41940;BMP180;23057;48.554;14.454;2023-03-03T03:55:19;93670.00;;;7.20
41940;BMP180;23057;48.554;14.454;2023-03-03T03:57:51;93672.00;;;7.20
41940;BMP180;23057;48.554;14.454;2023-03-03T04:00:23;93665.00;;;7.10
41940;BMP180;23057;48.554;14.454;2023-03-03T04:02:54;93677.00;;;7.10
41940;BMP180;23057;48.554;14.454;2023-03-03T04:05:25;93671.00;;;7.00
41940;BMP180;23057;48.554;14.454;2023-03-03T04:07:56;93673.00;;;7.00
41940;BMP180;23057;48.554;14.454;2023-03-03T04:10:27;93685.00;;;7.00
41940;BMP180;23057;48.554;14.454;2023-03-03T04:12:58;93681.00;;;6.90
41940;BMP180;23057;48.554;14.454;2023-03-03T04:15:28;93684.00;;;6.90
41940;BMP180;23057;48.554;14.454;2023-03-03T04:17:59;93682.00;;;6.90
41940;BMP180;23057;48.554;14.454;2023-03-03T04:20:30;93674.00;;;6.80
41940;BMP180;23057;48.554;14.454;2023-03-03T04:23:01;93677.00;;;6.70
41940;BMP180;23057;48.554;14.454;2023-03-03T04:25:31;93676.00;;;6.70
41940;BMP180;23057;48.554;14.454;2023-03-03T04:28:02;93684.00;;;6.70
41940;BMP180;23057;48.554;14.454;2023-03-03T04:30:33;93677.00;;;6.70
41940;BMP180;23057;48.554;14.454;2023-03-03T04:33:04;93668.00;;;6.70
41940;BMP180;23057;48.554;14.454;2023-03-03T04:35:34;93665.00;;;6.70
41940;BMP180;23057;48.554;14.454;2023-03-03T04:38:05;93669.00;;;6.70
41940;BMP180;23057;48.554;14.454;2023-03-03T04:40:39;93664.00;;;6.70
41940;BMP180;23057;48.554;14.454;2023-03-03T04:43:12;93678.00;;;6.70
41940;BMP180;23057;48.554;14.454;2023-03-03T04:45:42;93673.00;;;6.70
41940;BMP180;23057;48.554;14.454;2023-03-03T04:48:14;93672.00;;;6.70
41940;BMP180;23057;48.554;14.454;2023-03-03T04:50:44;93670.00;;;6.70
41940;BMP180;23057;48.554;14.454;2023-03-03T04:53:15;93669.00;;;6.70
41940;BMP180;23057;48.554;14.454;2023-03-03T04:55:49;93672.00;;;6.80
41940;BMP180;23057;48.554;14.454;2023-03-03T04:58:21;93678.00;;;6.80
41940;BMP180;23057;48.554;14.454;2023-03-03T05:00:54;93672.00;;;6.80
41940;BMP180;23057;48.554;14.454;2023-03-03T05:03:26;93675.00;;;6.80
41940;BMP180;23057;48.554;14.454;2023-03-03T05:05:57;93672.00;;;6.80
41940;BMP180;23057;48.554;14.454;2023-03-03T05:08:27;93680.00;;;6.90
41940;BMP180;23057;48.554;14.454;2023-03-03T05:10:58;93675.00;;;6.90
41940;BMP180;23057;48.554;14.454;2023-03-03T05:13:30;93680.00;;;6.90
41940;BMP180;23057;48.554;14.454;2023-03-03T05:16:01;93688.00;;;6.90
41940;BMP180;23057;48.554;14.454;2023-03-03T05:18:33;93694.00;;;6.80
41940;BMP180;23057;48.554;14.454;2023-03-03T05:21:04;93692.00;;;6.80
41940;BMP180;23057;48.554;14.454;2023-03-03T05:23:35;93694.00;;;6.80
41940;BMP180;23057;48.554;14.454;2023-03-03T05:26:05;93707.00;;;6.70
41940;BMP180;23057;48.554;14.454;2023-03-03T05:28:36;93698.00;;;6.70
41940;BMP180;23057;48.554;14.454;2023-03-03T05:31:07;93702.00;;;6.70
41940;BMP180;23057;48.554;14.454;2023-03-03T05:33:38;93705.00;;;6.70
41940;BMP180;23057;48.554;14.454;2023-03-03T05:36:08;93707.00;;;6.70
41940;BMP180;23057;48.554;14.454;2023-03-03T05:38:39;93706.00;;;6.70
41940;BMP180;23057;48.554;14.454;2023-03-03T05:41:10;93708.00;;;6.70
41940;BMP180;23057;48.554;14.454;2023-03-03T05:43:41;93718.00;;;6.70
41940;BMP180;23057;48.554;14.454;2023-03-03T05:46:11;93714.00;;;6.70
41940;BMP180;23057;48.554;14.454;2023-03-03T05:48:42;93721.00;;;6.70
41940;BMP180;23057;48.554;14.454;2023-03-03T05:51:13;93720.00;;;6.70
41940;BMP180;23057;48.554;14.454;2023-03-03T05:53:44;93711.00;;;6.70
41940;BMP180;23057;48.554;14.454;2023-03-03T05:56:15;93714.00;;;6.60
41940;BMP180;23057;48.554;14.454;2023-03-03T05:58:46;93716.00;;;6.70
41940;BMP180;23057;48.554;14.454;2023-03-03T06:01:16;93717.00;;;6.70
41940;BMP180;23057;48.554;14.454;2023-03-03T06:03:47;93727.00;;;6.70
41940;BMP180;23057;48.554;14.454;2023-03-03T06:06:18;93718.00;;;6.60
41940;BMP180;23057;48.554;14.454;2023-03-03T06:08:49;93720.00;;;6.60
41940;BMP180;23057;48.554;14.454;2023-03-03T06:11:20;93721.00;;;6.70
41940;BMP180;23057;48.554;14.454;2023-03-03T06:13:51;93720.00;;;6.70
41940;BMP180;23057;48.554;14.454;2023-03-03T06:16:21;93736.00;;;6.80
41940;BMP180;23057;48.554;14.454;2023-03-03T06:18:52;93738.00;;;6.80
41940;BMP180;23057;48.554;14.454;2023-03-03T06:21:23;93736.00;;;6.90
41940;BMP180;23057;48.554;14.454;2023-03-03T06:23:53;93736.00;;;7.00
41940;BMP180;23057;48.554;14.454;2023-03-03T06:26:25;93731.00;;;7.00
41940;BMP180;23057;48.554;14.454;2023-03-03T06:28:56;93745.00;;;7.10
41940;BMP180;23057;48.554;14.454;2023-03-03T06:31:27;93743.00;;;7.20
41940;BMP180;23057;48.554;14.454;2023-03-03T06:33:58;93744.00;;;7.30
41940;BMP180;23057;48.554;14.454;2023-03-03T06:36:28;93750.00;;;7.40
41940;BMP180;23057;48.554;14.454;2023-03-03T06:38:59;93753.00;;;7.40
41940;BMP180;23057;48.554;14.454;2023-03-03T06:41:30;93751.00;;;7.50
41940;BMP180;23057;48.554;14.454;2023-03-03T06:44:01;93749.00;;;7.60
41940;BMP180;23057;48.554;14.454;2023-03-03T06:46:32;93750.00;;;7.70
41940;BMP180;23057;48.554;14.454;2023-03-03T06:49:03;93751.00;;;7.90
41940;BMP180;23057;48.554;14.454;2023-03-03T06:51:37;93759.00;;;8.00
41940;BMP180;23057;48.554;14.454;2023-03-03T06:54:14;93763.00;;;8.10
41940;BMP180;23057;48.554;14.454;2023-03-03T06:56:48;93760.00;;;8.20
41940;BMP180;23057;48.554;14.454;2023-03-03T06:59:21;93758.00;;;8.30
41940;BMP180;23057;48.554;14.454;2023-03-03T07:01:52;93760.00;;;8.40
41940;BMP180;23057;48.554;14.454;2023-03-03T07:04:28;93761.00;;;8.50
41940;BMP180;23057;48.554;14.454;2023-03-03T07:09:53;93762.00;;;8.80
41940;BMP180;23057;48.554;14.454;2023-03-03T07:12:29;93771.00;;;9.00
41940;BMP180;23057;48.554;14.454;2023-03-03T07:17:45;93777.00;;;9.30
41940;BMP180;23057;48.554;14.454;2023-03-03T07:20:24;93771.00;;;9.40
41940;BMP180;23057;48.554;14.454;2023-03-03T07:23:17;93779.00;;;9.60
41940;BMP180;23057;48.554;14.454;2023-03-03T07:25:55;93780.00;;;9.70
41940;BMP180;23057;48.554;14.454;2023-03-03T07:28:27;93793.00;;;9.80
41940;BMP180;23057;48.554;14.454;2023-03-03T07:30:59;93782.00;;;10.00
41940;BMP180;23057;48.554;14.454;2023-03-03T07:33:34;93791.00;;;10.10
41940;BMP180;23057;48.554;14.454;2023-03-03T07:36:26;93785.00;;;10.30
41940;BMP180;23057;48.554;14.454;2023-03-03T07:39:10;93794.00;;;10.40
41940;BMP180;23057;48.554;14.454;2023-03-03T07:44:44;93783.00;;;10.70
41940;BMP180;23057;48.554;14.454;2023-03-03T07:47:26;93781.00;;;10.80
41940;BMP180;23057;48.554;14.454;2023-03-03T07:50:00;93775.00;;;10.90
41940;BMP180;23057;48.554;14.454;2023-03-03T07:55:40;93788.00;;;11.30
41940;BMP180;23057;48.554;14.454;2023-03-03T08:03:19;93795.00;;;11.70
41940;BMP180;23057;48.554;14.454;2023-03-03T08:05:50;93799.00;;;11.80
41940;BMP180;23057;48.554;14.454;2023-03-03T08:08:37;93789.00;;;12.00
41940;BMP180;23057;48.554;14.454;2023-03-03T08:11:11;93784.00;;;12.10
41940;BMP180;23057;48.554;14.454;2023-03-03T08:13:44;93787.00;;;12.20
41940;BMP180;23057;48.554;14.454;2023-03-03T08:18:48;93796.00;;;12.30
41940;BMP180;23057;48.554;14.454;2023-03-03T08:21:22;93800.00;;;12.50
41940;BMP180;23057;48.554;14.454;2023-03-03T08:23:54;93791.00;;;12.60
41940;BMP180;23057;48.554;14.454;2023-03-03T08:26:25;93799.00;;;12.70
41940;BMP180;23057;48.554;14.454;2023-03-03T08:28:56;93802.00;;;12.90
41940;BMP180;23057;48.554;14.454;2023-03-03T08:31:27;93803.00;;;13.00
41940;BMP180;23057;48.554;14.454;2023-03-03T08:33:58;93797.00;;;13.10
41940;BMP180;23057;48.554;14.454;2023-03-03T08:36:29;93796.00;;;13.20
41940;BMP180;23057;48.554;14.454;2023-03-03T08:39:01;93792.00;;;13.30
41940;BMP180;23057;48.554;14.454;2023-03-03T08:41:33;93798.00;;;13.50
41940;BMP180;23057;48.554;14.454;2023-03-03T08:44:04;93793.00;;;13.60
41940;BMP180;23057;48.554;14.454;2023-03-03T08:46:36;93784.00;;;13.80
41940;BMP180;23057;48.554;14.454;2023-03-03T08:49:07;93796.00;;;13.90
41940;BMP180;23057;48.554;14.454;2023-03-03T08:51:37;93794.00;;;14.00
41940;BMP180;23057;48.554;14.454;2023-03-03T08:54:08;93790.00;;;14.20
41940;BMP180;23057;48.554;14.454;2023-03-03T08:56:39;93796.00;;;14.40
41940;BMP180;23057;48.554;14.454;2023-03-03T08:59:10;93785.00;;;14.50
41940;BMP180;23057;48.554;14.454;2023-03-03T09:01:41;93806.00;;;14.80
41940;BMP180;23057;48.554;14.454;2023-03-03T09:04:14;93801.00;;;14.90
41940;BMP180;23057;48.554;14.454;2023-03-03T09:06:44;93801.00;;;15.00
41940;BMP180;23057;48.554;14.454;2023-03-03T09:09:15;93801.00;;;15.00
41940;BMP180;23057;48.554;14.454;2023-03-03T09:11:46;93818.00;;;15.10
41940;BMP180;23057;48.554;14.454;2023-03-03T09:14:17;93823.00;;;15.10
41940;BMP180;23057;48.554;14.454;2023-03-03T09:16:51;93819.00;;;15.20
41940;BMP180;23057;48.554;14.454;2023-03-03T09:19:27;93824.00;;;15.30
41940;BMP180;23057;48.554;14.454;2023-03-03T09:22:23;93827.00;;;15.40
41940;BMP180;23057;48.554;14.454;2023-03-03T09:24:58;93840.00;;;15.50
41940;BMP180;23057;48.554;14.454;2023-03-03T09:27:33;93844.00;;;15.60
41940;BMP180;23057;48.554;14.454;2023-03-03T09:30:26;93852.00;;;15.70
41940;BMP180;23057;48.554;14.454;2023-03-03T09:33:28;93855.00;;;15.70
41940;BMP180;23057;48.554;14.454;2023-03-03T09:36:27;93858.00;;;15.60
41940;BMP180;23057;48.554;14.454;2023-03-03T09:39:16;93850.00;;;15.50
41940;BMP180;23057;48.554;14.454;2023-03-03T09:53:44;93852.00;;;15.10
41940;BMP180;23057;48.554;14.454;2023-03-03T09:56:33;93856.00;;;15.00
41940;BMP180;23057;48.554;14.454;2023-03-03T10:00:12;93855.00;;;14.80
41940;BMP180;23057;48.554;14.454;2023-03-03T10:05:45;93855.00;;;14.40
41940;BMP180;23057;48.554;14.454;2023-03-03T10:11:20;93850.00;;;14.10
41940;BMP180;23057;48.554;14.454;2023-03-03T10:23:20;93843.00;;;14.00
41940;BMP180;23057;48.554;14.454;2023-03-03T10:25:57;93853.00;;;14.20
41940;BMP180;23057;48.554;14.454;2023-03-03T10:35:29;93839.00;;;14.50
41940;BMP180;23057;48.554;14.454;2023-03-03T10:44:21;93836.00;;;15.10
41940;BMP180;23057;48.554;14.454;2023-03-03T10:56:39;93848.00;;;15.30
41940;BMP180;23057;48.554;14.454;2023-03-03T11:02:16;93850.00;;;15.50
41940;BMP180;23057;48.554;14.454;2023-03-03T11:05:03;93852.00;;;15.60
41940;BMP180;23057;48.554;14.454;2023-03-03T11:16:16;93835.00;;;15.40
41940;BMP180;23057;48.554;14.454;2023-03-03T11:28:12;93840.00;;;15.60
41940;BMP180;23057;48.554;14.454;2023-03-03T11:34:52;93837.00;;;15.80
41940;BMP180;23057;48.554;14.454;2023-03-03T11:40:19;93829.00;;;16.20
41940;BMP180;23057;48.554;14.454;2023-03-03T11:43:14;93827.00;;;16.20
41940;BMP180;23057;48.554;14.454;2023-03-03T11:45:59;93827.00;;;16.30
41940;BMP180;23057;48.554;14.454;2023-03-03T11:48:45;93821.00;;;16.40
41940;BMP180;23057;48.554;14.454;2023-03-03T11:54:59;93816.00;;;16.50
41940;BMP180;23057;48.554;14.454;2023-03-03T11:57:47;93802.00;;;16.70
41940;BMP180;23057;48.554;14.454;2023-03-03T12:00:36;93806.00;;;17.00
41940;BMP180;23057;48.554;14.454;2023-03-03T12:03:33;93808.00;;;17.00
41940;BMP180;23057;48.554;14.454;2023-03-03T12:06:27;93795.00;;;16.90
41940;BMP180;23057;48.554;14.454;2023-03-03T12:09:33;93798.00;;;16.80
41940;BMP180;23057;48.554;14.454;2023-03-03T12:12:17;93801.00;;;17.00
41940;BMP180;23057;48.554;14.454;2023-03-03T12:15:22;93800.00;;;17.10
41940;BMP180;23057;48.554;14.454;2023-03-03T12:21:38;93795.00;;;17.20
41940;BMP180;23057;48.554;14.454;2023-03-03T12:27:49;93801.00;;;17.00
41940;BMP180;23057;48.554;14.454;2023-03-03T12:48:20;93784.00;;;16.60
41940;BMP180;23057;48.554;14.454;2023-03-03T12:51:21;93783.00;;;16.50
41940;BMP180;23057;48.554;14.454;2023-03-03T12:56:56;93790.00;;;16.40
41940;BMP180;23057;48.554;14.454;2023-03-03T12:59:44;93785.00;;;16.50
41940;BMP180;23057;48.554;14.454;2023-03-03T13:02:54;93779.00;;;16.50
41940;BMP180;23057;48.554;14.454;2023-03-03T13:05:56;93778.00;;;16.40
41940;BMP180;23057;48.554;14.454;2023-03-03T13:08:50;93778.00;;;16.30
41940;BMP180;23057;48.554;14.454;2023-03-03T13:17:54;93767.00;;;16.20
41940;BMP180;23057;48.554;14.454;2023-03-03T13:26:37;93767.00;;;16.00
41940;BMP180;23057;48.554;14.454;2023-03-03T13:29:34;93763.00;;;16.00
41940;BMP180;23057;48.554;14.454;2023-03-03T13:32:19;93758.00;;;16.00
41940;BMP180;23057;48.554;14.454;2023-03-03T13:35:18;93763.00;;;16.10
41940;BMP180;23057;48.554;14.454;2023-03-03T13:38:01;93755.00;;;16.10
41940;BMP180;23057;48.554;14.454;2023-03-03T13:40:47;93756.00;;;16.20
41940;BMP180;23057;48.554;14.454;2023-03-03T13:43:47;93752.00;;;16.30
41940;BMP180;23057;48.554;14.454;2023-03-03T13:46:31;93751.00;;;16.50
41940;BMP180;23057;48.554;14.454;2023-03-03T13:49:28;93745.00;;;16.50
41940;BMP180;23057;48.554;14.454;2023-03-03T13:52:26;93753.00;;;16.40
41940;BMP180;23057;48.554;14.454;2023-03-03T13:55:25;93745.00;;;16.40
41940;BMP180;23057;48.554;14.454;2023-03-03T14:01:21;93748.00;;;16.30
41940;BMP180;23057;48.554;14.454;2023-03-03T14:06:59;93744.00;;;16.20
41940;BMP180;23057;48.554;14.454;2023-03-03T14:15:54;93733.00;;;16.10
41940;BMP180;23057;48.554;14.454;2023-03-03T14:18:37;93738.00;;;16.00
41940;BMP180;23057;48.554;14.454;2023-03-03T14:21:13;93740.00;;;16.00
41940;BMP180;23057;48.554;14.454;2023-03-03T14:32:00;93738.00;;;15.80
41940;BMP180;23057;48.554;14.454;2023-03-03T14:34:39;93738.00;;;15.70
41940;BMP180;23057;48.554;14.454;2023-03-03T14:37:23;93738.00;;;15.70
41940;BMP180;23057;48.554;14.454;2023-03-03T14:40:09;93731.00;;;15.60
41940;BMP180;23057;48.554;14.454;2023-03-03T14:42:51;93734.00;;;15.60
41940;BMP180;23057;48.554;14.454;2023-03-03T14:45:33;93739.00;;;15.50
41940;BMP180;23057;48.554;14.454;2023-03-03T14:48:25;93739.00;;;15.50
41940;BMP180;23057;48.554;14.454;2023-03-03T14:50:59;93735.00;;;15.40
41940;BMP180;23057;48.554;14.454;2023-03-03T14:53:53;93739.00;;;15.40
41940;BMP180;23057;48.554;14.454;2023-03-03T14:56:33;93739.00;;;15.30
41940;BMP180;23057;48.554;14.454;2023-03-03T14:59:24;93743.00;;;15.20
41940;BMP180;23057;48.554;14.454;2023-03-03T15:02:23;93742.00;;;15.10
41940;BMP180;23057;48.554;14.454;2023-03-03T15:08:09;93744.00;;;14.90
41940;BMP180;23057;48.554;14.454;2023-03-03T15:10:44;93743.00;;;14.90
41940;BMP180;23057;48.554;14.454;2023-03-03T15:15:59;93751.00;;;14.90
41940;BMP180;23057;48.554;14.454;2023-03-03T15:21:56;93744.00;;;14.80
41940;BMP180;23057;48.554;14.454;2023-03-03T15:24:44;93753.00;;;14.80
41940;BMP180;23057;48.554;14.454;2023-03-03T15:27:43;93757.00;;;14.80
41940;BMP180;23057;48.554;14.454;2023-03-03T15:33:28;93757.00;;;14.60
41940;BMP180;23057;48.554;14.454;2023-03-03T15:42:21;93768.00;;;14.40
41940;BMP180;23057;48.554;14.454;2023-03-03T15:45:28;93757.00;;;14.30
41940;BMP180;23057;48.554;14.454;2023-03-03T16:05:38;93770.00;;;14.40
41940;BMP180;23057;48.554;14.454;2023-03-03T16:20:16;93780.00;;;14.30
41940;BMP180;23057;48.554;14.454;2023-03-03T16:25:59;93780.00;;;14.30
41940;BMP180;23057;48.554;14.454;2023-03-03T16:31:56;93798.00;;;14.30
41940;BMP180;23057;48.554;14.454;2023-03-03T16:35:13;93795.00;;;14.20
41940;BMP180;23057;48.554;14.454;2023-03-03T16:38:01;93802.00;;;14.20
41940;BMP180;23057;48.554;14.454;2023-03-03T16:59:41;93823.00;;;13.70
41940;BMP180;23057;48.554;14.454;2023-03-03T17:17:43;93850.00;;;13.30
41940;BMP180;23057;48.554;14.454;2023-03-03T17:20:36;93848.00;;;13.30
41940;BMP180;23057;48.554;14.454;2023-03-03T17:23:48;93846.00;;;13.30
41940;BMP180;23057;48.554;14.454;2023-03-03T17:26:55;93853.00;;;13.20
41940;BMP180;23057;48.554;14.454;2023-03-03T17:30:26;93860.00;;;13.20
41940;BMP180;23057;48.554;14.454;2023-03-03T17:39:12;93866.00;;;13.20
41940;BMP180;23057;48.554;14.454;2023-03-03T17:42:15;93872.00;;;13.10
41940;BMP180;23057;48.554;14.454;2023-03-03T17:54:25;93875.00;;;13.00
41940;BMP180;23057;48.554;14.454;2023-03-03T17:57:18;93874.00;;;13.00
41940;BMP180;23057;48.554;14.454;2023-03-03T18:00:10;93870.00;;;13.00
41940;BMP180;23057;48.554;14.454;2023-03-03T18:03:07;93878.00;;;13.00
41940;BMP180;23057;48.554;14.454;2023-03-03T18:12:11;93873.00;;;12.70
41940;BMP180;23057;48.554;14.454;2023-03-03T18:19:07;93874.00;;;12.60
41940;BMP180;23057;48.554;14.454;2023-03-03T18:25:19;93875.00;;;12.50
41940;BMP180;23057;48.554;14.454;2023-03-03T18:30:30;93888.00;;;12.40
41940;BMP180;23057;48.554;14.454;2023-03-03T18:33:57;93891.00;;;12.20
41940;BMP180;23057;48.554;14.454;2023-03-03T18:39:04;93890.00;;;12.00
41940;BMP180;23057;48.554;14.454;2023-03-03T18:44:41;93893.00;;;11.80
41940;BMP180;23057;48.554;14.454;2023-03-03T18:47:13;93884.00;;;11.80
41940;BMP180;23057;48.554;14.454;2023-03-03T18:49:55;93890.00;;;11.70
41940;BMP180;23057;48.554;14.454;2023-03-03T18:56:00;93877.00;;;11.60
41940;BMP180;23057;48.554;14.454;2023-03-03T18:58:34;93896.00;;;11.60
41940;BMP180;23057;48.554;14.454;2023-03-03T19:18:23;93884.00;;;11.30
41940;BMP180;23057;48.554;14.454;2023-03-03T19:21:03;93887.00;;;11.20
41940;BMP180;23057;48.554;14.454;2023-03-03T19:38:30;93892.00;;;10.80
41940;BMP180;23057;48.554;14.454;2023-03-03T19:53:04;93894.00;;;10.40
41940;BMP180;23057;48.554;14.454;2023-03-03T20:07:37;93893.00;;;9.90
41940;BMP180;23057;48.554;14.454;2023-03-03T20:21:37;93890.00;;;9.80
41940;BMP180;23057;48.554;14.454;2023-03-03T20:27:02;93888.00;;;9.70
41940;BMP180;23057;48.554;14.454;2023-03-03T20:32:47;93898.00;;;9.30
41940;BMP180;23057;48.554;14.454;2023-03-03T20:38:32;93896.00;;;9.30
41940;BMP180;23057;48.554;14.454;2023-03-03T20:41:42;93892.00;;;9.30
41940;BMP180;23057;48.554;14.454;2023-03-03T20:47:56;93898.00;;;9.20
41940;BMP180;23057;48.554;14.454;2023-03-03T20:58:08;93908.00;;;8.90
41940;BMP180;23057;48.554;14.454;2023-03-03T21:03:41;93905.00;;;8.80
41940;BMP180;23057;48.554;14.454;2023-03-03T21:06:16;93901.00;;;8.80
41940;BMP180;23057;48.554;14.454;2023-03-03T21:08:53;93908.00;;;8.80
41940;BMP180;23057;48.554;14.454;2023-03-03T21:14:13;93903.00;;;8.90
41940;BMP180;23057;48.554;14.454;2023-03-03T21:16:50;93900.00;;;8.90
41940;BMP180;23057;48.554;14.454;2023-03-03T21:19:40;93905.00;;;8.90
41940;BMP180;23057;48.554;14.454;2023-03-03T21:22:11;93903.00;;;8.90
41940;BMP180;23057;48.554;14.454;2023-03-03T21:24:50;93903.00;;;8.90
41940;BMP180;23057;48.554;14.454;2023-03-03T21:27:32;93897.00;;;8.80
41940;BMP180;23057;48.554;14.454;2023-03-03T21:30:09;93900.00;;;8.70
41940;BMP180;23057;48.554;14.454;2023-03-03T21:32:47;93890.00;;;8.70
41940;BMP180;23057;48.554;14.454;2023-03-03T21:35:20;93890.00;;;8.60
41940;BMP180;23057;48.554;14.454;2023-03-03T21:37:56;93885.00;;;8.60
41940;BMP180;23057;48.554;14.454;2023-03-03T21:40:28;93886.00;;;8.50